createdAt,value
2019-05-07T00:02:43.173Z,47.00
2019-05-07T00:07:49.153Z,46.90
2019-05-07T00:12:54.702Z,46.90
2019-05-07T00:18:03.237Z,47.00
2019-05-07T00:23:08.884Z,46.90
2019-05-07T00:28:15.023Z,47.10
2019-05-07T00:33:22.733Z,47.00
2019-05-07T00:38:31.959Z,47.00
2019-05-07T00:43:42.766Z,47.10
2019-05-07T00:48:48.393Z,47.10
2019-05-07T00:53:54.833Z,47.70
2019-05-07T00:59:02.201Z,47.70
2019-05-07T01:04:08.075Z,47.10
2019-05-07T01:09:13.813Z,47.10
2019-05-07T01:14:19.421Z,47.10
2019-05-07T01:19:25.042Z,47.10
2019-05-07T01:24:32.253Z,47.10
2019-05-07T01:29:38.004Z,47.10
2019-05-07T01:34:52.336Z,47.10
2019-05-07T01:39:57.496Z,47.10
2019-05-07T01:45:04.184Z,47.00
2019-05-07T01:50:10.154Z,47.10
2019-05-07T01:55:16.524Z,47.10
2019-05-07T02:00:22.716Z,47.00
2019-05-07T02:05:37.991Z,47.00
2019-05-07T02:11:02.534Z,47.00
2019-05-07T02:16:08.583Z,47.10
2019-05-07T02:21:14.634Z,47.00
2019-05-07T02:26:22.542Z,47.00
2019-05-07T02:31:28.080Z,47.00
2019-05-07T02:36:35.185Z,47.00
2019-05-07T02:41:43.914Z,47.00
2019-05-07T02:47:12.889Z,46.90
2019-05-07T02:52:46.267Z,46.90
2019-05-07T02:57:54.015Z,46.80
2019-05-07T03:02:59.651Z,46.80
2019-05-07T03:08:06.140Z,46.70
2019-05-07T03:13:13.759Z,46.70
2019-05-07T03:18:19.252Z,46.70
2019-05-07T03:23:29.607Z,46.70
2019-05-07T03:28:53.156Z,46.60
2019-05-07T03:34:07.458Z,46.70
2019-05-07T03:39:14.570Z,46.60
2019-05-07T03:44:38.997Z,46.60
2019-05-07T03:49:44.855Z,46.50
2019-05-07T03:54:53.831Z,46.50
2019-05-07T03:59:59.284Z,46.50
2019-05-07T04:05:09.253Z,46.60
2019-05-07T04:10:15.510Z,46.50
2019-05-07T04:15:23.374Z,46.40
2019-05-07T04:20:28.887Z,46.50
2019-05-07T04:25:53.354Z,46.50
2019-05-07T04:31:02.849Z,46.40
2019-05-07T04:36:22.989Z,46.40
2019-05-07T04:41:28.455Z,46.50
2019-05-07T04:46:34.276Z,46.50
2019-05-07T04:51:46.173Z,46.40
2019-05-07T04:56:53.125Z,46.40
2019-05-07T05:02:13.515Z,46.40
2019-05-07T05:07:22.473Z,46.30
2019-05-07T05:12:29.335Z,46.40
2019-05-07T05:17:47.018Z,46.40
2019-05-07T05:23:03.956Z,46.30
2019-05-07T05:28:12.389Z,46.30
2019-05-07T05:33:18.363Z,46.30
2019-05-07T05:38:26.936Z,46.20
2019-05-07T05:43:42.579Z,41.30
2019-05-07T05:48:49.173Z,43.10
2019-05-07T05:54:08.653Z,44.80
2019-05-07T05:59:54.530Z,45.00
2019-05-07T06:05:34.296Z,45.00
2019-05-07T06:11:02.418Z,45.10
2019-05-07T06:16:15.123Z,44.40
2019-05-07T06:21:42.883Z,44.90
2019-05-07T06:26:49.174Z,45.00
2019-05-07T06:32:03.764Z,45.00
2019-05-07T06:37:09.309Z,45.00
2019-05-07T06:42:46.437Z,45.00
2019-05-07T06:47:52.276Z,45.00
2019-05-07T06:52:58.597Z,45.10
2019-05-07T06:58:05.977Z,45.10
2019-05-07T07:03:27.336Z,45.10
2019-05-07T07:08:41.877Z,45.10
2019-05-07T07:13:47.571Z,45.10
2019-05-07T07:18:56.697Z,45.00
2019-05-07T07:24:03.133Z,45.00
2019-05-07T07:29:10.146Z,45.00
2019-05-07T07:34:17.137Z,45.00
2019-05-07T07:39:23.917Z,45.10
2019-05-07T07:44:32.842Z,45.10
2019-05-07T07:49:38.418Z,42.80
2019-05-07T07:54:44.717Z,44.00
2019-05-07T08:00:11.808Z,44.40
2019-05-07T08:05:17.207Z,44.70
2019-05-07T08:10:27.092Z,44.70
2019-05-07T08:15:33.250Z,44.90
2019-05-07T08:20:39.168Z,44.40
2019-05-07T08:25:52.502Z,45.00
2019-05-07T08:31:22.489Z,45.40
2019-05-07T08:36:28.027Z,45.50
2019-05-07T08:41:33.837Z,46.60
2019-05-07T08:46:57.157Z,45.90
2019-05-07T08:52:03.979Z,45.70
2019-05-07T08:57:11.743Z,33.50
2019-05-07T09:02:18.346Z,42.10
2019-05-07T09:07:24.757Z,43.50
2019-05-07T09:12:31.852Z,44.60
2019-05-07T09:17:38.286Z,45.00
2019-05-07T09:22:44.646Z,44.90
2019-05-07T09:27:52.471Z,45.60
2019-05-07T09:33:17.296Z,45.90
2019-05-07T09:38:24.217Z,45.50
2019-05-07T09:43:32.476Z,45.60
2019-05-07T09:48:38.706Z,45.70
2019-05-07T09:53:44.805Z,45.70
2019-05-07T09:58:52.921Z,45.90
2019-05-07T10:04:04.436Z,45.80
2019-05-07T10:09:12.066Z,46.00
2019-05-07T10:14:18.285Z,46.10
2019-05-07T10:19:24.799Z,46.00
2019-05-07T10:24:31.087Z,46.60
2019-05-07T10:29:37.874Z,46.60
2019-05-07T10:34:43.575Z,46.60
2019-05-07T10:39:51.860Z,46.70
2019-05-07T10:45:18.955Z,47.50
2019-05-07T10:50:38.051Z,46.90
2019-05-07T10:55:35.326Z,46.80
2019-05-07T11:00:42.182Z,47.00
2019-05-07T11:05:48.197Z,46.90
2019-05-07T11:10:54.595Z,46.80
2019-05-07T11:16:07.709Z,46.90
2019-05-07T11:21:13.639Z,44.80
2019-05-07T11:26:19.714Z,44.50
2019-05-07T11:31:25.627Z,44.30
2019-05-07T11:36:32.083Z,45.40
2019-05-07T11:41:58.315Z,45.80
2019-05-07T11:47:26.035Z,46.20
2019-05-07T11:52:36.695Z,46.00
2019-05-07T11:57:44.480Z,45.80
2019-05-07T12:02:51.908Z,45.70
2019-05-07T12:07:58.245Z,45.70
2019-05-07T12:13:04.305Z,45.60
2019-05-07T12:18:11.868Z,45.50
2019-05-07T12:23:18.186Z,45.50
2019-05-07T12:28:24.086Z,45.40
2019-05-07T12:33:52.027Z,45.30
2019-05-07T12:38:57.875Z,45.40
2019-05-07T12:44:07.477Z,45.40
2019-05-07T12:49:14.225Z,45.30
2019-05-07T12:54:36.494Z,45.50
2019-05-07T12:59:42.601Z,45.40
2019-05-07T13:04:48.344Z,45.50
2019-05-07T13:09:55.735Z,45.50
2019-05-07T13:15:03.655Z,45.60
2019-05-07T13:20:12.116Z,45.70
2019-05-07T13:25:18.435Z,45.80
2019-05-07T13:30:24.998Z,45.80
2019-05-07T13:35:31.905Z,46.10
2019-05-07T13:41:02.243Z,46.20
2019-05-07T13:46:13.855Z,46.30
2019-05-07T13:51:21.696Z,46.40
2019-05-07T13:56:29.744Z,46.50
2019-05-07T14:01:42.493Z,46.60
2019-05-07T14:06:49.085Z,46.60
2019-05-07T14:11:55.446Z,46.50
2019-05-07T14:17:02.436Z,46.60
2019-05-07T14:22:16.324Z,46.60
2019-05-07T14:27:17.497Z,46.80
2019-05-07T14:32:42.067Z,46.60
2019-05-07T14:37:52.352Z,46.90
2019-05-07T14:43:06.705Z,47.10
2019-05-07T14:48:13.798Z,47.30
2019-05-07T14:53:22.369Z,47.10
2019-05-07T14:58:28.716Z,46.90
2019-05-07T15:03:35.365Z,46.60
2019-05-07T15:08:42.870Z,46.50
2019-05-07T15:13:52.060Z,46.40
2019-05-07T15:18:58.885Z,46.30
2019-05-07T15:24:04.967Z,46.50
2019-05-07T15:29:14.206Z,46.50
2019-05-07T15:34:22.051Z,46.30
2019-05-07T15:39:28.384Z,46.40
2019-05-07T15:44:35.056Z,46.30
2019-05-07T15:49:42.066Z,46.20
2019-05-07T15:54:48.919Z,46.00
2019-05-07T16:00:06.355Z,46.00
2019-05-07T16:05:13.217Z,46.40
2019-05-07T16:10:20.108Z,46.60
2019-05-07T16:15:26.287Z,46.50
2019-05-07T16:20:34.426Z,46.70
2019-05-07T16:25:42.242Z,46.40
2019-05-07T16:30:52.090Z,45.70
2019-05-07T16:35:57.666Z,45.40
2019-05-07T16:41:03.507Z,45.40
2019-05-07T16:46:11.893Z,45.60
2019-05-07T16:51:18.472Z,45.00
2019-05-07T16:56:25.536Z,46.20
2019-05-07T17:01:32.716Z,45.80
2019-05-07T17:06:42.113Z,46.00
2019-05-07T17:11:48.625Z,46.60
2019-05-07T17:16:56.906Z,46.90
2019-05-07T17:22:06.474Z,47.10
2019-05-07T17:27:11.985Z,47.10
2019-05-07T17:32:18.415Z,47.20
2019-05-07T17:37:25.026Z,47.30
2019-05-07T17:42:32.844Z,47.50
2019-05-07T17:47:39.296Z,47.50
2019-05-07T17:52:45.306Z,47.40
2019-05-07T17:57:52.330Z,47.70
2019-05-07T18:03:15.936Z,47.80
2019-05-07T18:08:21.836Z,46.80
2019-05-07T18:13:31.982Z,47.10
2019-05-07T18:18:37.084Z,47.30
2019-05-07T18:23:44.315Z,47.20
2019-05-07T18:28:52.080Z,47.10
2019-05-07T18:33:59.658Z,47.00
2019-05-07T18:39:06.486Z,46.90
2019-05-07T18:44:16.198Z,46.70
2019-05-07T18:49:22.152Z,46.60
2019-05-07T18:54:31.286Z,47.30
2019-05-07T18:59:37.631Z,46.80
2019-05-07T19:04:47.407Z,46.90
2019-05-07T19:09:53.177Z,47.00
2019-05-07T19:14:59.363Z,47.10
2019-05-07T19:20:06.646Z,47.10
2019-05-07T19:25:12.826Z,47.10
2019-05-07T19:30:21.687Z,47.20
2019-05-07T19:35:28.026Z,47.20
2019-05-07T19:40:34.364Z,47.40
2019-05-07T19:45:44.426Z,47.40
2019-05-07T19:50:52.561Z,47.40
2019-05-07T19:56:17.575Z,47.50
2019-05-07T20:01:37.176Z,48.20
2019-05-07T20:06:46.386Z,47.70
2019-05-07T20:11:53.316Z,47.80
2019-05-07T20:17:03.656Z,47.80
2019-05-07T20:22:12.622Z,47.90
2019-05-07T20:27:18.226Z,47.80
2019-05-07T20:32:24.335Z,47.90
2019-05-07T20:37:32.928Z,47.90
2019-05-07T20:42:38.995Z,47.90
2019-05-07T20:47:45.224Z,47.90
2019-05-07T20:52:52.666Z,47.90
2019-05-07T20:57:58.415Z,47.90
2019-05-07T21:03:23.833Z,47.90
2019-05-07T21:08:31.912Z,47.90
2019-05-07T21:13:41.486Z,47.90
2019-05-07T21:18:47.372Z,47.90
2019-05-07T21:23:54.144Z,48.00
2019-05-07T21:29:02.985Z,48.00
2019-05-07T21:34:12.281Z,47.40
2019-05-07T21:39:19.398Z,47.80
2019-05-07T21:44:26.584Z,47.70
2019-05-07T21:49:34.415Z,47.80
2019-05-07T21:54:47.086Z,47.80
2019-05-07T22:00:12.717Z,47.80
2019-05-07T22:05:18.505Z,47.80
2019-05-07T22:10:24.944Z,47.80
2019-05-07T22:15:31.916Z,47.80
2019-05-07T22:20:38.215Z,47.80
2019-05-07T22:25:46.139Z,47.90
2019-05-07T22:31:14.465Z,47.90
2019-05-07T22:36:22.005Z,48.00
2019-05-07T22:41:28.326Z,48.00
2019-05-07T22:46:34.475Z,48.00
2019-05-07T22:51:40.770Z,47.90
2019-05-07T22:57:14.515Z,47.90
2019-05-07T23:02:22.662Z,48.00
2019-05-07T23:07:28.163Z,48.00
2019-05-07T23:12:34.464Z,47.90
2019-05-07T23:17:40.320Z,48.00
2019-05-07T23:22:46.355Z,47.90
2019-05-07T23:27:52.581Z,48.00
2019-05-07T23:32:58.215Z,48.00
2019-05-07T23:38:04.055Z,48.00
2019-05-07T23:43:12.155Z,48.60
2019-05-07T23:48:17.955Z,47.90
2019-05-07T23:53:24.295Z,48.00
2019-05-07T23:58:32.516Z,47.90
